Time;durP1;ratioP1;P1;durP2;ratioP2;P2;SDS_P1;SDS_P2;PMS_P1;PMS_P2;Temp;Humidity;BMP_temperature;BMP_pressure;BME280_temperature;BME280_humidity;BME280_pressure;Samples;Min_cycle;Max_cycle;Signal;HPM_P1;HPM_P2
2022/10/02 00:01:40;;;;;;;9.10;6.00;;;;;;;;;;5020979;28;20041;-81
2022/10/02 00:04:52;;;;;;;11.05;6.05;;;;;;;;;;5027154;28;20037;-80
2022/10/02 00:07:48;;;;;;;7.45;5.00;;;;;;;;;;5020931;28;20495;-79
2022/10/02 00:10:56;;;;;;;8.85;5.13;;;;;;;;;;5020782;28;20487;-80
2022/10/02 00:13:46;;;;;;;11.63;5.90;;;;;;;;;;5027687;28;20042;-80
2022/10/02 00:16:32;;;;;;;8.95;5.43;;;;;;;;;;5020617;28;20042;-80
2022/10/02 00:19:19;;;;;;;7.35;5.90;;;;;;;;;;5027371;28;20046;-82
2022/10/02 00:22:16;;;;;;;9.20;5.70;;;;;;;;;;5027814;28;20038;-84
2022/10/02 00:25:15;;;;;;;6.78;4.55;;;;;;;;;;5027591;28;20049;-83
2022/10/02 00:28:25;;;;;;;7.65;4.85;;;;;;;;;;5021672;28;20391;-82
2022/10/02 00:31:35;;;;;;;5.40;3.92;;;;;;;;;;5016698;28;20038;-82
2022/10/02 00:34:48;;;;;;;8.02;4.88;;;;;;;;;;5028425;28;20049;-82
2022/10/02 00:37:41;;;;;;;10.82;6.43;;;;;;;;;;5014291;28;20053;-84
2022/10/02 00:40:39;;;;;;;7.20;4.32;;;;;;;;;;5028276;28;20075;-83
2022/10/02 00:43:49;;;;;;;11.32;4.72;;;;;;;;;;5027492;28;20046;-83
2022/10/02 00:46:35;;;;;;;8.38;4.93;;;;;;;;;;5020308;28;20050;-83
2022/10/02 00:49:42;;;;;;;8.70;4.70;;;;;;;;;;5021437;28;20041;-83
2022/10/02 00:53:06;;;;;;;6.32;4.50;;;;;;;;;;5026947;28;20045;-83
2022/10/02 00:56:28;;;;;;;7.63;4.57;;;;;;;;;;4966829;28;20043;-83
2022/10/02 00:59:29;;;;;;;6.40;4.30;;;;;;;;;;4960443;28;20062;-83
2022/10/02 01:02:35;;;;;;;7.85;4.38;;;;;;;;;;5020537;28;20405;-82
2022/10/02 01:05:20;;;;;;;10.65;4.22;;;;;;;;;;5026392;28;20045;-82
2022/10/02 01:08:07;;;;;;;4.70;4.00;;;;;;;;;;5016669;28;20046;-82
2022/10/02 01:10:52;;;;;;;4.93;3.75;;;;;;;;;;5016979;28;20037;-82
2022/10/02 01:13:38;;;;;;;4.68;3.83;;;;;;;;;;5016747;28;20492;-83
2022/10/02 01:16:24;;;;;;;6.05;3.92;;;;;;;;;;5023325;28;20038;-82
2022/10/02 01:19:36;;;;;;;5.40;4.03;;;;;;;;;;5001986;28;20042;-82
2022/10/02 01:22:38;;;;;;;7.60;4.22;;;;;;;;;;5023853;28;20041;-83
2022/10/02 01:25:24;;;;;;;3.78;3.40;;;;;;;;;;5017943;28;20050;-82
2022/10/02 01:28:10;;;;;;;5.78;3.22;;;;;;;;;;5024368;28;20062;-83
2022/10/02 01:31:03;;;;;;;4.63;3.15;;;;;;;;;;5017367;28;20041;-83
2022/10/02 01:33:49;;;;;;;5.00;3.47;;;;;;;;;;5008823;28;20062;-82
2022/10/02 01:36:36;;;;;;;4.43;3.05;;;;;;;;;;5017745;28;20046;-82
2022/10/02 01:39:22;;;;;;;6.90;3.30;;;;;;;;;;5017641;28;20046;-82
2022/10/02 01:42:07;;;;;;;7.30;4.72;;;;;;;;;;5025324;28;20479;-82
2022/10/02 01:44:53;;;;;;;5.40;3.88;;;;;;;;;;5025859;28;20042;-82
2022/10/02 01:47:55;;;;;;;7.18;3.70;;;;;;;;;;5020289;28;20050;-82
2022/10/02 01:51:15;;;;;;;7.93;3.85;;;;;;;;;;5016823;28;20038;-82
2022/10/02 01:54:21;;;;;;;7.72;3.78;;;;;;;;;;5016749;28;20054;-81
2022/10/02 01:57:18;;;;;;;8.10;4.22;;;;;;;;;;5016026;28;20492;-82
2022/10/02 02:00:09;;;;;;;10.80;4.95;;;;;;;;;;5016706;28;20046;-81
2022/10/02 02:03:06;;;;;;;10.80;6.18;;;;;;;;;;5022782;28;20042;-82
2022/10/02 02:05:55;;;;;;;9.13;4.10;;;;;;;;;;5016748;28;20049;-82
2022/10/02 02:08:59;;;;;;;8.80;4.07;;;;;;;;;;5017132;28;20046;-83
2022/10/02 02:11:54;;;;;;;11.18;3.67;;;;;;;;;;5016722;28;20491;-82
2022/10/02 02:14:49;;;;;;;5.95;3.50;;;;;;;;;;5023612;28;20049;-82
2022/10/02 02:18:00;;;;;;;5.57;3.53;;;;;;;;;;5016023;28;20395;-82
2022/10/02 02:20:49;;;;;;;5.93;3.85;;;;;;;;;;5016157;28;20480;-82
2022/10/02 02:23:38;;;;;;;9.23;3.70;;;;;;;;;;5015715;28;20042;-82
2022/10/02 02:26:24;;;;;;;6.55;4.50;;;;;;;;;;5015694;28;20038;-82
2022/10/02 02:29:12;;;;;;;7.53;4.18;;;;;;;;;;5022309;28;20049;-81
2022/10/02 02:32:00;;;;;;;10.27;4.65;;;;;;;;;;5015728;28;20042;-82
2022/10/02 02:34:53;;;;;;;6.00;3.97;;;;;;;;;;5016331;28;20050;-82
2022/10/02 02:37:41;;;;;;;5.60;4.70;;;;;;;;;;5017215;28;20391;-82
2022/10/02 02:40:31;;;;;;;9.82;4.45;;;;;;;;;;5021918;28;20388;-82
2022/10/02 02:43:23;;;;;;;9.07;5.25;;;;;;;;;;5022343;28;20042;-82
2022/10/02 02:46:21;;;;;;;10.13;4.90;;;;;;;;;;5015521;28;20488;-82
2022/10/02 02:49:10;;;;;;;7.75;4.85;;;;;;;;;;5001441;28;20034;-82
2022/10/02 02:52:00;;;;;;;5.93;4.57;;;;;;;;;;5022453;28;20049;-82
2022/10/02 02:54:52;;;;;;;7.55;4.60;;;;;;;;;;5022733;28;20050;-82
2022/10/02 02:57:48;;;;;;;11.15;5.72;;;;;;;;;;5015190;28;20054;-82
2022/10/02 03:00:34;;;;;;;12.57;5.90;;;;;;;;;;5016978;28;20045;-82
2022/10/02 03:03:19;;;;;;;11.23;7.03;;;;;;;;;;5022334;28;20046;-82
2022/10/02 03:06:30;;;;;;;13.70;7.72;;;;;;;;;;5014775;28;20042;-82
2022/10/02 03:09:19;;;;;;;11.05;7.65;;;;;;;;;;5015136;28;20041;-82
2022/10/02 03:12:03;;;;;;;11.13;7.47;;;;;;;;;;5015158;28;20499;-82
2022/10/02 03:15:01;;;;;;;10.98;7.35;;;;;;;;;;5021191;28;20395;-82
2022/10/02 03:18:01;;;;;;;10.07;7.18;;;;;;;;;;5015828;28;20046;-81
2022/10/02 03:21:11;;;;;;;12.48;7.25;;;;;;;;;;5017389;28;20049;-82
2022/10/02 03:24:08;;;;;;;12.02;7.80;;;;;;;;;;5018707;28;20398;-82
2022/10/02 03:27:05;;;;;;;11.25;6.85;;;;;;;;;;5024298;28;20038;-83
2022/10/02 03:29:58;;;;;;;10.52;6.65;;;;;;;;;;5017671;28;20042;-83
2022/10/02 03:32:45;;;;;;;8.77;5.57;;;;;;;;;;5018184;28;20046;-83
2022/10/02 03:35:32;;;;;;;7.32;4.50;;;;;;;;;;5024526;28;20046;-84
2022/10/02 03:38:19;;;;;;;5.70;3.05;;;;;;;;;;5016275;28;20058;-82
2022/10/02 03:41:05;;;;;;;4.65;2.80;;;;;;;;;;5014677;28;20491;-83
2022/10/02 03:43:50;;;;;;;4.68;2.60;;;;;;;;;;5014312;28;20045;-83
2022/10/02 03:46:36;;;;;;;3.63;2.60;;;;;;;;;;5014222;28;20391;-83
2022/10/02 03:49:21;;;;;;;7.50;2.78;;;;;;;;;;5021342;28;20041;-83
2022/10/02 03:52:06;;;;;;;3.53;2.50;;;;;;;;;;5014366;28;20046;-82
2022/10/02 03:54:58;;;;;;;5.22;2.47;;;;;;;;;;5014514;28;20046;-82
2022/10/02 03:57:45;;;;;;;9.45;7.22;;;;;;;;;;5015919;28;20046;-82
2022/10/02 04:00:36;;;;;;;6.50;5.25;;;;;;;;;;5013931;28;20038;-83
2022/10/02 04:03:48;;;;;;;8.57;2.30;;;;;;;;;;5020537;28;20045;-83
2022/10/02 04:06:32;;;;;;;6.10;2.70;;;;;;;;;;5014799;28;20045;-82
2022/10/02 04:09:38;;;;;;;5.15;2.47;;;;;;;;;;5005820;28;20046;-82
2022/10/02 04:12:36;;;;;;;6.82;4.85;;;;;;;;;;5005805;28;20045;-82
2022/10/02 04:15:27;;;;;;;7.05;3.45;;;;;;;;;;5014362;28;20046;-83
2022/10/02 04:18:36;;;;;;;3.83;2.80;;;;;;;;;;5013261;28;20479;-83
2022/10/02 04:21:45;;;;;;;7.50;2.67;;;;;;;;;;5013368;28;20046;-83
2022/10/02 04:24:43;;;;;;;6.80;3.33;;;;;;;;;;4987904;28;20054;-83
2022/10/02 04:27:38;;;;;;;9.27;5.07;;;;;;;;;;5014233;28;20042;-83
2022/10/02 04:30:25;;;;;;;8.90;4.32;;;;;;;;;;5013243;28;20399;-82
2022/10/02 04:33:11;;;;;;;4.20;2.72;;;;;;;;;;5020530;28;20057;-83
2022/10/02 04:36:16;;;;;;;5.13;2.38;;;;;;;;;;5020298;28;20046;-83
2022/10/02 04:39:09;;;;;;;2.58;1.80;;;;;;;;;;5020220;28;20049;-84
2022/10/02 04:41:58;;;;;;;2.38;1.80;;;;;;;;;;5014921;28;20046;-84
2022/10/02 04:44:52;;;;;;;3.45;2.10;;;;;;;;;;5017277;28;20390;-84
2022/10/02 04:47:51;;;;;;;;;;;;;;;;;;5018363;28;20483;-83
2022/10/02 04:50:50;;;;;;;3.83;2.20;;;;;;;;;;5023323;28;19913;-84
2022/10/02 04:53:57;;;;;;;4.32;2.40;;;;;;;;;;5023641;28;20053;-84
2022/10/02 04:57:21;;;;;;;4.72;2.00;;;;;;;;;;5016771;28;20053;-84
2022/10/02 05:00:10;;;;;;;4.28;2.67;;;;;;;;;;5016965;28;20045;-83
2022/10/02 05:03:24;;;;;;;7.00;3.38;;;;;;;;;;5017287;28;20387;-83
2022/10/02 05:06:18;;;;;;;6.00;3.08;;;;;;;;;;5023750;28;20049;-83
2022/10/02 05:09:22;;;;;;;12.18;5.95;;;;;;;;;;5023798;28;20395;-82
2022/10/02 05:12:37;;;;;;;8.82;6.80;;;;;;;;;;5017020;28;20046;-83
2022/10/02 05:15:55;;;;;;;12.77;7.55;;;;;;;;;;5015826;28;20042;-83
2022/10/02 05:19:19;;;;;;;12.13;6.25;;;;;;;;;;5017296;28;20038;-87
2022/10/02 05:22:38;;;;;;;8.20;5.22;;;;;;;;;;5022917;28;20045;-83
2022/10/02 05:25:44;;;;;;;9.38;4.05;;;;;;;;;;4989352;28;20057;-83
2022/10/02 05:28:36;;;;;;;8.65;5.18;;;;;;;;;;5016922;28;20511;-83
2022/10/02 05:31:26;;;;;;;35.50;18.75;;;;;;;;;;5016660;28;20050;-83
2022/10/02 05:34:30;;;;;;;81.60;47.58;;;;;;;;;;5023242;28;20499;-83
2022/10/02 05:37:39;;;;;;;63.65;41.60;;;;;;;;;;5017181;28;20503;-84
2022/10/02 05:40:46;;;;;;;46.40;31.63;;;;;;;;;;5017185;28;20038;-84
2022/10/02 05:43:38;;;;;;;25.42;15.48;;;;;;;;;;5022418;28;20471;-84
2022/10/02 05:46:27;;;;;;;23.38;13.73;;;;;;;;;;5015693;28;20042;-85
2022/10/02 05:49:29;;;;;;;17.30;10.73;;;;;;;;;;5016162;28;20050;-85
2022/10/02 05:52:19;;;;;;;21.33;10.95;;;;;;;;;;5015995;28;20054;-85
2022/10/02 05:55:24;;;;;;;18.27;10.85;;;;;;;;;;5016135;28;20046;-84
2022/10/02 05:58:20;;;;;;;12.18;7.80;;;;;;;;;;5015813;28;20431;-85
2022/10/02 06:01:14;;;;;;;10.07;6.07;;;;;;;;;;5007565;28;20038;-85
2022/10/02 06:04:19;;;;;;;10.82;6.68;;;;;;;;;;5015661;28;20053;-85
2022/10/02 06:07:12;;;;;;;8.00;5.50;;;;;;;;;;5015950;28;20054;-85
2022/10/02 06:10:27;;;;;;;7.25;5.47;;;;;;;;;;5015772;28;20034;-85
2022/10/02 06:13:28;;;;;;;7.25;3.28;;;;;;;;;;4998711;28;20065;-84
2022/10/02 06:16:42;;;;;;;10.52;3.88;;;;;;;;;;5022587;28;20392;-85
2022/10/02 06:19:31;;;;;;;6.15;3.38;;;;;;;;;;5021990;28;20058;-85
2022/10/02 06:22:25;;;;;;;9.40;3.00;;;;;;;;;;5015325;28;20042;-85
2022/10/02 06:25:36;;;;;;;3.67;2.13;;;;;;;;;;5015492;28;20483;-88
2022/10/02 06:28:34;;;;;;;9.55;4.50;;;;;;;;;;5015207;28;20042;-85
2022/10/02 06:31:39;;;;;;;5.70;2.60;;;;;;;;;;5007857;28;20034;-85
2022/10/02 06:34:25;;;;;;;4.40;2.42;;;;;;;;;;5015885;28;20046;-85
2022/10/02 06:37:34;;;;;;;5.78;1.60;;;;;;;;;;5015475;28;20046;-85
2022/10/02 06:40:32;;;;;;;2.53;1.60;;;;;;;;;;5007587;28;20112;-85
2022/10/02 06:43:17;;;;;;;3.47;1.90;;;;;;;;;;5015513;28;20038;-85
2022/10/02 06:46:28;;;;;;;5.63;2.10;;;;;;;;;;5016410;28;20479;-84
2022/10/02 06:49:32;;;;;;;5.07;2.00;;;;;;;;;;5015467;28;20082;-83
2022/10/02 06:52:45;;;;;;;2.22;1.65;;;;;;;;;;5021484;28;20046;-83
2022/10/02 06:55:43;;;;;;;5.47;2.47;;;;;;;;;;5015462;28;20046;-84
2022/10/02 06:58:39;;;;;;;5.50;2.15;;;;;;;;;;5021097;28;20046;-83
2022/10/02 07:01:47;;;;;;;5.28;1.70;;;;;;;;;;5015035;28;20054;-83
2022/10/02 07:05:18;;;;;;;6.50;1.70;;;;;;;;;;5013928;28;20050;-84
2022/10/02 07:08:28;;;;;;;8.60;2.03;;;;;;;;;;5014327;28;20058;-83
2022/10/02 07:11:38;;;;;;;6.40;2.53;;;;;;;;;;5014389;28;20495;-83
2022/10/02 07:15:09;;;;;;;6.97;3.55;;;;;;;;;;5021191;28;20038;-84
2022/10/02 07:18:18;;;;;;;6.70;2.90;;;;;;;;;;5014655;28;20052;-84
2022/10/02 07:21:12;;;;;;;2.88;1.83;;;;;;;;;;5015153;28;20046;-83
2022/10/02 07:24:22;;;;;;;2.97;1.85;;;;;;;;;;5021275;28;20033;-84
2022/10/02 07:27:43;;;;;;;7.57;2.50;;;;;;;;;;5021085;28;20045;-83
2022/10/02 07:30:39;;;;;;;4.57;2.55;;;;;;;;;;5014561;28;20054;-84
2022/10/02 07:34:03;;;;;;;5.38;2.67;;;;;;;;;;5014516;28;20045;-84
2022/10/02 07:36:55;;;;;;;4.57;2.40;;;;;;;;;;5020658;28;20479;-83
2022/10/02 07:39:50;;;;;;;6.38;2.58;;;;;;;;;;5014243;28;20058;-80
2022/10/02 07:43:03;;;;;;;7.43;2.80;;;;;;;;;;5015169;28;20041;-80
2022/10/02 07:46:17;;;;;;;7.65;3.25;;;;;;;;;;5013938;28;20054;-79
2022/10/02 07:49:11;;;;;;;5.97;2.38;;;;;;;;;;5021525;28;20046;-80
2022/10/02 07:52:17;;;;;;;7.90;2.45;;;;;;;;;;5014463;28;20050;-82
2022/10/02 07:55:14;;;;;;;6.47;2.15;;;;;;;;;;5022386;28;20054;-81
2022/10/02 07:58:38;;;;;;;3.67;1.85;;;;;;;;;;5013440;28;20046;-80
2022/10/02 08:01:27;;;;;;;6.75;2.15;;;;;;;;;;5021087;28;20046;-80
2022/10/02 08:04:29;;;;;;;5.65;1.90;;;;;;;;;;5014002;28;20042;-81
2022/10/02 08:07:14;;;;;;;231.57;156.25;;;;;;;;;;5013956;28;20058;-81
2022/10/02 08:10:04;;;;;;;22.73;13.05;;;;;;;;;;5014858;28;20042;-81
2022/10/02 08:13:15;;;;;;;41.45;26.38;;;;;;;;;;5020541;28;20041;-81
2022/10/02 08:16:03;;;;;;;35.60;19.23;;;;;;;;;;5015948;28;20432;-79
2022/10/02 08:19:02;;;;;;;153.85;106.47;;;;;;;;;;5018024;28;20046;-82
2022/10/02 08:22:08;;;;;;;8.30;5.15;;;;;;;;;;5017654;28;20050;-80
2022/10/02 08:24:58;;;;;;;10.07;3.50;;;;;;;;;;5018042;28;20038;-80
2022/10/02 08:27:52;;;;;;;2.85;1.60;;;;;;;;;;5018300;28;20038;-82
2022/10/02 08:30:38;;;;;;;;;;;;;;;;;;5025074;28;20038;-77
2022/10/02 08:33:24;;;;;;;;;;;;;;;;;;5025080;28;19913;-79
2022/10/02 08:36:23;;;;;;;7.00;1.70;;;;;;;;;;5017644;28;19917;-81
2022/10/02 08:39:21;;;;;;;2.75;1.40;;;;;;;;;;5017839;28;20057;-80
2022/10/02 08:42:31;;;;;;;2.55;1.40;;;;;;;;;;5022911;28;20067;-80
2022/10/02 08:45:34;;;;;;;3.17;1.42;;;;;;;;;;5022586;28;20045;-80
2022/10/02 08:48:31;;;;;;;2.42;1.30;;;;;;;;;;5016432;28;20050;-81
2022/10/02 08:52:22;;;;;;;4.22;2.03;;;;;;;;;;5021743;28;20432;-80
2022/10/02 08:55:49;;;;;;;1.40;1.05;;;;;;;;;;4924824;29;20043;-80
2022/10/02 08:58:44;;;;;;;4.28;2.22;;;;;;;;;;5023067;28;20050;-81
2022/10/02 09:01:46;;;;;;;1.17;0.82;;;;;;;;;;5017008;28;20046;-82
2022/10/02 09:04:51;;;;;;;1.83;0.90;;;;;;;;;;5017527;28;20038;-80
2022/10/02 09:07:49;;;;;;;4.03;1.63;;;;;;;;;;5017488;28;20081;-80
2022/10/02 09:10:44;;;;;;;1.40;0.80;;;;;;;;;;5023487;28;20046;-80
2022/10/02 09:14:04;;;;;;;5.80;1.92;;;;;;;;;;5017138;28;20054;-79
2022/10/02 09:17:31;;;;;;;3.95;1.98;;;;;;;;;;5016376;28;20483;-80
2022/10/02 09:21:07;;;;;;;6.35;1.95;;;;;;;;;;4998055;28;20054;-79
2022/10/02 09:24:16;;;;;;;4.75;1.73;;;;;;;;;;5019529;28;20046;-79
2022/10/02 09:27:07;;;;;;;5.82;1.52;;;;;;;;;;5016119;28;20050;-79
2022/10/02 09:30:12;;;;;;;5.40;2.00;;;;;;;;;;5016668;28;20054;-80
2022/10/02 09:33:29;;;;;;;2.50;1.55;;;;;;;;;;5016597;28;20049;-80
2022/10/02 09:36:27;;;;;;;4.63;1.77;;;;;;;;;;5022790;28;20046;-80
2022/10/02 09:39:31;;;;;;;2.78;1.52;;;;;;;;;;5016817;28;20053;-80
2022/10/02 09:42:35;;;;;;;1.73;1.35;;;;;;;;;;5016540;28;20046;-80
2022/10/02 09:45:50;;;;;;;4.90;1.30;;;;;;;;;;5016000;28;20041;-80
2022/10/02 09:48:58;;;;;;;3.17;1.70;;;;;;;;;;5023235;28;20054;-82
2022/10/02 09:51:55;;;;;;;7.78;1.70;;;;;;;;;;5016378;28;20053;-81
2022/10/02 09:55:04;;;;;;;3.60;1.08;;;;;;;;;;5016064;28;20038;-80
2022/10/02 09:58:09;;;;;;;1.88;0.82;;;;;;;;;;5015526;28;20049;-80
2022/10/02 10:01:30;;;;;;;3.53;1.30;;;;;;;;;;5022729;28;20042;-80
2022/10/02 10:04:45;;;;;;;3.70;1.23;;;;;;;;;;5022135;28;20042;-82
2022/10/02 10:07:50;;;;;;;3.38;1.85;;;;;;;;;;4998504;28;20049;-79
2022/10/02 10:11:00;;;;;;;3.75;1.20;;;;;;;;;;5022263;28;20046;-80
2022/10/02 10:14:20;;;;;;;2.70;0.98;;;;;;;;;;5022153;28;20042;-80
2022/10/02 10:17:24;;;;;;;4.45;1.27;;;;;;;;;;5022384;28;20045;-80
2022/10/02 10:20:42;;;;;;;2.00;1.60;;;;;;;;;;5015738;28;20050;-80
2022/10/02 10:23:49;;;;;;;1.98;1.25;;;;;;;;;;5015971;28;20046;-81
2022/10/02 10:26:53;;;;;;;1.63;1.15;;;;;;;;;;5015607;28;20062;-81
2022/10/02 10:30:10;;;;;;;1.02;0.93;;;;;;;;;;5015896;28;20045;-81
2022/10/02 10:33:16;;;;;;;2.55;1.10;;;;;;;;;;5015785;28;20050;-80
2022/10/02 10:36:01;;;;;;;4.43;1.30;;;;;;;;;;5016936;28;20049;-78
2022/10/02 10:38:57;;;;;;;4.10;1.08;;;;;;;;;;5021538;28;20046;-79
2022/10/02 10:42:09;;;;;;;2.10;1.20;;;;;;;;;;5022451;28;20042;-79
2022/10/02 10:45:06;;;;;;;1.20;1.05;;;;;;;;;;5015920;28;20042;-81
2022/10/02 10:48:17;;;;;;;3.85;1.23;;;;;;;;;;5018979;28;20515;-79
2022/10/02 10:51:15;;;;;;;1.30;1.13;;;;;;;;;;5021984;28;20038;-79
2022/10/02 10:54:39;;;;;;;1.00;0.93;;;;;;;;;;5015732;28;20046;-82
2022/10/02 10:57:57;;;;;;;1.35;1.00;;;;;;;;;;5015513;28;20049;-80
2022/10/02 11:01:06;;;;;;;5.53;0.93;;;;;;;;;;5014958;28;20487;-79
2022/10/02 11:04:17;;;;;;;1.20;1.10;;;;;;;;;;5021606;28;20054;-79
2022/10/02 11:07:20;;;;;;;1.00;0.65;;;;;;;;;;4995895;28;20054;-80
2022/10/02 11:10:30;;;;;;;0.98;0.80;;;;;;;;;;5021601;28;20054;-79
2022/10/02 11:13:42;;;;;;;3.20;2.10;;;;;;;;;;5014873;28;20038;-79
2022/10/02 11:16:42;;;;;;;0.60;0.60;;;;;;;;;;5020869;28;20050;-80
2022/10/02 11:19:42;;;;;;;0.80;0.80;;;;;;;;;;5021634;28;20065;-79
2022/10/02 11:22:43;;;;;;;1.35;1.02;;;;;;;;;;5014528;28;20046;-80
2022/10/02 11:25:56;;;;;;;1.50;0.68;;;;;;;;;;5020777;28;20391;-80
2022/10/02 11:28:59;;;;;;;2.05;1.00;;;;;;;;;;5014500;28;20406;-79
2022/10/02 11:31:59;;;;;;;1.45;0.82;;;;;;;;;;5014890;28;20049;-80
2022/10/02 11:35:12;;;;;;;2.13;1.23;;;;;;;;;;5014426;28;20487;-79
2022/10/02 11:38:22;;;;;;;1.52;0.93;;;;;;;;;;5021363;28;20427;-79
2022/10/02 11:41:23;;;;;;;2.67;1.00;;;;;;;;;;5013738;28;20045;-80
2022/10/02 11:44:33;;;;;;;2.70;0.88;;;;;;;;;;5020601;28;20054;-81
2022/10/02 11:47:53;;;;;;;2.47;1.33;;;;;;;;;;5014138;28;20487;-81
2022/10/02 11:50:54;;;;;;;6.30;1.80;;;;;;;;;;5008147;28;20049;-81
2022/10/02 11:54:01;;;;;;;2.05;1.00;;;;;;;;;;5020943;28;20061;-80
2022/10/02 11:57:09;;;;;;;2.13;1.23;;;;;;;;;;5014049;28;20045;-81
2022/10/02 12:00:30;;;;;;;1.92;1.10;;;;;;;;;;5020862;28;20403;-78
2022/10/02 12:03:34;;;;;;;2.17;0.82;;;;;;;;;;5015470;28;20042;-79
2022/10/02 12:06:45;;;;;;;1.10;0.90;;;;;;;;;;5016002;28;20042;-79
2022/10/02 12:09:49;;;;;;;1.20;0.80;;;;;;;;;;5014327;28;20050;-80
2022/10/02 12:12:38;;;;;;;3.00;0.55;;;;;;;;;;5014200;28;20050;-78
2022/10/02 12:15:51;;;;;;;0.93;0.70;;;;;;;;;;5020235;28;20046;-77
2022/10/02 12:18:57;;;;;;;2.05;0.60;;;;;;;;;;5020389;28;20054;-81
2022/10/02 12:29:01;;;;;;;8.20;2.00;;;;;;;;;;5020007;28;20494;-80
2022/10/02 12:31:59;;;;;;;2.33;1.00;;;;;;;;;;5019004;28;20042;-80
2022/10/02 12:35:18;;;;;;;2.15;0.65;;;;;;;;;;5011972;28;20053;-80
2022/10/02 12:38:27;;;;;;;3.58;2.72;;;;;;;;;;4998809;28;20045;-80
2022/10/02 12:41:44;;;;;;;3.08;1.10;;;;;;;;;;5012670;28;20053;-81
2022/10/02 12:44:57;;;;;;;1.70;0.85;;;;;;;;;;5013457;28;20399;-80
2022/10/02 12:47:46;;;;;;;3.15;1.17;;;;;;;;;;5020630;28;20412;-79
2022/10/02 12:51:00;;;;;;;1.90;1.35;;;;;;;;;;5014311;28;20042;-79
2022/10/02 12:53:59;;;;;;;0.80;0.80;;;;;;;;;;5020598;28;20073;-80
2022/10/02 12:57:50;;;;;;;3.10;1.60;;;;;;;;;;5017703;28;20054;-81
2022/10/02 13:00:24;;;;;;;2.53;1.30;;;;;;;;;;5013447;28;20049;-79
2022/10/02 13:03:28;;;;;;;1.92;1.17;;;;;;;;;;5016535;28;20391;-79
2022/10/02 13:06:45;;;;;;;1.88;0.90;;;;;;;;;;5016935;28;20038;-80
2022/10/02 13:10:15;;;;;;;1.50;1.08;;;;;;;;;;5017680;28;20054;-81
2022/10/02 13:13:23;;;;;;;2.00;1.15;;;;;;;;;;4956712;29;20043;-80
2022/10/02 13:16:27;;;;;;;4.10;2.10;;;;;;;;;;5023724;28;20050;-79
2022/10/02 13:19:29;;;;;;;5.80;2.60;;;;;;;;;;5023431;28;20054;-80
2022/10/02 13:22:50;;;;;;;3.95;1.73;;;;;;;;;;5023266;28;20045;-79
2022/10/02 13:25:43;;;;;;;2.20;1.20;;;;;;;;;;5023099;28;20045;-80
2022/10/02 13:28:45;;;;;;;2.70;0.80;;;;;;;;;;5016790;28;20050;-79
2022/10/02 13:31:43;;;;;;;2.80;0.88;;;;;;;;;;5016926;28;20046;-80
2022/10/02 13:34:56;;;;;;;2.13;0.95;;;;;;;;;;5016707;28;20042;-80
2022/10/02 13:37:44;;;;;;;5.10;1.13;;;;;;;;;;5023167;28;20488;-79
2022/10/02 13:40:40;;;;;;;1.83;1.05;;;;;;;;;;5023212;28;20053;-80
2022/10/02 13:43:29;;;;;;;1.10;0.90;;;;;;;;;;5016328;28;20050;-78
2022/10/02 13:46:40;;;;;;;1.48;1.23;;;;;;;;;;5016631;28;20475;-78
2022/10/02 13:49:52;;;;;;;0.93;0.77;;;;;;;;;;5015166;28;20050;-79
2022/10/02 13:52:52;;;;;;;2.05;1.45;;;;;;;;;;5016360;28;20049;-79
2022/10/02 13:55:52;;;;;;;2.65;1.25;;;;;;;;;;5022788;28;20050;-81
2022/10/02 13:59:13;;;;;;;1.17;0.80;;;;;;;;;;5016395;28;20046;-80
2022/10/02 14:02:01;;;;;;;3.40;1.00;;;;;;;;;;5022961;28;20049;-80
2022/10/02 14:04:54;;;;;;;2.05;1.20;;;;;;;;;;5016004;28;20046;-79
2022/10/02 14:08:04;;;;;;;2.63;1.10;;;;;;;;;;5017263;28;20054;-80
2022/10/02 14:10:59;;;;;;;2.70;1.25;;;;;;;;;;5015766;28;20046;-80
2022/10/02 14:14:05;;;;;;;4.95;2.22;;;;;;;;;;5015942;28;20058;-80
2022/10/02 14:17:33;;;;;;;2.70;0.90;;;;;;;;;;5007941;28;20050;-81
2022/10/02 14:20:18;;;;;;;1.85;1.00;;;;;;;;;;5016442;28;20050;-80
2022/10/02 14:23:22;;;;;;;8.18;2.28;;;;;;;;;;5022298;28;20045;-79
2022/10/02 14:26:26;;;;;;;1.80;1.23;;;;;;;;;;5015594;28;20033;-80
2022/10/02 14:29:38;;;;;;;7.15;1.33;;;;;;;;;;5022512;28;20054;-81
2022/10/02 14:32:45;;;;;;;1.63;1.40;;;;;;;;;;5015891;28;20053;-81
2022/10/02 14:35:55;;;;;;;3.88;1.70;;;;;;;;;;5015885;28;20049;-80
2022/10/02 14:39:14;;;;;;;6.63;5.28;;;;;;;;;;5015201;28;20046;-80
2022/10/02 14:42:38;;;;;;;5.15;1.50;;;;;;;;;;5021906;28;20038;-79
2022/10/02 14:46:06;;;;;;;3.13;1.10;;;;;;;;;;5021768;28;20054;-79
2022/10/02 14:49:21;;;;;;;3.13;1.30;;;;;;;;;;5021840;28;20045;-79
2022/10/02 14:52:08;;;;;;;3.10;2.08;;;;;;;;;;5000303;28;20487;-78
2022/10/02 14:55:15;;;;;;;7.68;3.55;;;;;;;;;;5022022;28;20404;-79
2022/10/02 14:58:25;;;;;;;1.85;1.33;;;;;;;;;;5014971;28;20054;-80
2022/10/02 15:01:22;;;;;;;1.40;1.20;;;;;;;;;;5021729;28;20046;-80
2022/10/02 15:04:28;;;;;;;5.10;1.30;;;;;;;;;;5022025;28;20046;-80
2022/10/02 15:07:17;;;;;;;3.17;1.80;;;;;;;;;;5021810;28;20054;-80
2022/10/02 15:10:21;;;;;;;4.05;1.77;;;;;;;;;;5022396;28;20046;-80
2022/10/02 15:13:25;;;;;;;4.93;1.70;;;;;;;;;;4993139;28;20042;-78
2022/10/02 15:19:30;;;;;;;4.88;1.85;;;;;;;;;;5014637;28;20066;-80
2022/10/02 15:22:30;;;;;;;3.60;1.85;;;;;;;;;;5006921;28;20049;-79
2022/10/02 15:25:31;;;;;;;8.32;2.78;;;;;;;;;;5019626;28;20042;-79
2022/10/02 15:28:25;;;;;;;4.55;2.17;;;;;;;;;;5019832;28;20400;-79
2022/10/02 15:31:20;;;;;;;3.50;2.17;;;;;;;;;;5019971;28;20399;-79
2022/10/02 15:34:31;;;;;;;3.20;2.13;;;;;;;;;;5021025;28;20487;-79
2022/10/02 15:37:33;;;;;;;4.40;2.28;;;;;;;;;;5014863;28;20041;-80
2022/10/02 15:40:34;;;;;;;6.35;2.72;;;;;;;;;;5020750;28;20041;-81
2022/10/02 15:43:40;;;;;;;7.07;3.78;;;;;;;;;;5020778;28;20054;-80
2022/10/02 15:46:27;;;;;;;;;;;;;;;;;;5020206;28;20033;-80
2022/10/02 15:49:29;;;;;;;6.07;3.60;;;;;;;;;;5018557;28;19940;-80
2022/10/02 15:52:34;;;;;;;8.25;2.88;;;;;;;;;;5019136;28;20049;-80
2022/10/02 15:55:30;;;;;;;4.88;2.70;;;;;;;;;;5019085;28;20053;-81
2022/10/02 15:58:42;;;;;;;7.53;3.00;;;;;;;;;;5012123;28;20046;-80
2022/10/02 16:01:46;;;;;;;6.90;4.35;;;;;;;;;;5012690;28;20430;-80
2022/10/02 16:05:30;;;;;;;22.55;12.75;;;;;;;;;;5020934;28;20058;-79
2022/10/02 16:08:44;;;;;;;33.50;19.02;;;;;;;;;;5020284;28;20050;-80
2022/10/02 16:12:01;;;;;;;24.48;15.98;;;;;;;;;;5013844;28;20045;-79
2022/10/02 16:14:46;;;;;;;18.20;12.68;;;;;;;;;;5020592;28;20049;-78
2022/10/02 16:18:12;;;;;;;10.23;6.82;;;;;;;;;;5020238;28;20391;-82
2022/10/02 16:21:38;;;;;;;13.65;6.93;;;;;;;;;;5020486;28;20522;-80
2022/10/02 16:24:25;;;;;;;13.50;7.40;;;;;;;;;;4953603;29;20540;-80
2022/10/02 16:27:25;;;;;;;12.07;6.88;;;;;;;;;;4967735;28;20038;-79
2022/10/02 16:30:14;;;;;;;11.93;6.53;;;;;;;;;;5013863;28;20034;-79
2022/10/02 16:33:21;;;;;;;7.60;4.60;;;;;;;;;;5020587;28;20054;-80
2022/10/02 16:36:15;;;;;;;16.35;5.22;;;;;;;;;;5020483;28;20046;-80
2022/10/02 16:39:24;;;;;;;13.38;5.93;;;;;;;;;;5002507;28;20046;-80
2022/10/02 16:42:32;;;;;;;17.10;7.82;;;;;;;;;;5028501;28;20038;-81
2022/10/02 16:45:27;;;;;;;18.40;8.00;;;;;;;;;;5026809;28;20038;-82
2022/10/02 16:48:18;;;;;;;17.48;6.57;;;;;;;;;;5031719;28;20049;-81
2022/10/02 16:51:13;;;;;;;12.27;5.93;;;;;;;;;;5038550;28;20054;-81
2022/10/02 16:54:13;;;;;;;10.90;4.47;;;;;;;;;;5040093;28;20050;-81
2022/10/02 16:57:18;;;;;;;6.93;3.00;;;;;;;;;;5030739;28;20046;-80
2022/10/02 17:00:27;;;;;;;7.38;4.78;;;;;;;;;;5025920;28;20038;-81
2022/10/02 17:03:35;;;;;;;11.95;5.97;;;;;;;;;;5025375;28;20046;-81
2022/10/02 17:06:32;;;;;;;10.48;5.00;;;;;;;;;;5032436;28;20042;-81
2022/10/02 17:09:32;;;;;;;7.22;4.70;;;;;;;;;;5024699;28;20045;-80
2022/10/02 17:12:26;;;;;;;27.02;13.32;;;;;;;;;;5023323;28;20050;-81
2022/10/02 17:15:11;;;;;;;30.85;14.77;;;;;;;;;;5030799;28;20391;-81
2022/10/02 17:18:17;;;;;;;35.95;19.52;;;;;;;;;;5023262;28;20050;-80
2022/10/02 17:21:14;;;;;;;32.38;16.52;;;;;;;;;;5030820;28;20053;-81
2022/10/02 17:24:12;;;;;;;20.60;9.60;;;;;;;;;;5021810;28;20038;-81
2022/10/02 17:27:25;;;;;;;30.23;12.77;;;;;;;;;;5022690;28;20046;-81
2022/10/02 17:30:23;;;;;;;15.70;10.25;;;;;;;;;;5023082;28;20046;-82
2022/10/02 17:33:14;;;;;;;21.52;11.13;;;;;;;;;;5022624;28;20049;-80
2022/10/02 17:36:14;;;;;;;21.35;10.55;;;;;;;;;;5030002;28;20034;-82
2022/10/02 17:39:24;;;;;;;18.52;7.93;;;;;;;;;;5019010;28;20046;-82
2022/10/02 17:42:21;;;;;;;20.35;9.13;;;;;;;;;;5016534;28;20054;-82
2022/10/02 17:45:28;;;;;;;17.25;8.40;;;;;;;;;;5023205;28;20045;-81
2022/10/02 17:48:34;;;;;;;8.63;5.95;;;;;;;;;;5015760;28;20050;-85
2022/10/02 17:51:43;;;;;;;13.55;5.82;;;;;;;;;;5016386;28;20395;-87
2022/10/02 17:58:44;;;;;;;11.30;6.97;;;;;;;;;;5001630;28;20046;-79
2022/10/02 18:02:06;;;;;;;11.43;6.88;;;;;;;;;;5019422;28;20392;-80
2022/10/02 18:05:15;;;;;;;12.85;6.53;;;;;;;;;;5018641;28;20053;-79
2022/10/02 18:08:16;;;;;;;9.27;5.25;;;;;;;;;;5018635;28;20050;-80
2022/10/02 18:11:05;;;;;;;6.63;4.45;;;;;;;;;;5025553;28;20045;-79
2022/10/02 18:13:54;;;;;;;10.48;5.18;;;;;;;;;;5016971;28;20046;-80
2022/10/02 18:16:49;;;;;;;15.43;8.07;;;;;;;;;;5016827;28;20041;-81
2022/10/02 18:19:35;;;;;;;21.27;9.60;;;;;;;;;;5024291;28;20042;-80
2022/10/02 18:22:28;;;;;;;27.73;11.02;;;;;;;;;;5025029;28;20046;-80